createdAt,value
2023-04-09T00:00:12.652Z,7.73
2023-04-09T00:03:36.676Z,7.73
2023-04-09T00:06:39.717Z,7.74
2023-04-09T00:09:42.691Z,7.72
2023-04-09T00:12:45.943Z,7.71
2023-04-09T00:15:48.990Z,7.71
2023-04-09T00:18:52.403Z,7.70
2023-04-09T00:21:56.121Z,7.70
2023-04-09T00:24:59.198Z,7.69
2023-04-09T00:28:02.771Z,7.67
2023-04-09T00:31:06.044Z,7.66
2023-04-09T00:34:09.052Z,7.65
2023-04-09T00:37:13.295Z,7.64
2023-04-09T00:40:16.315Z,7.64
2023-04-09T00:43:19.481Z,7.65
2023-04-09T00:46:22.541Z,7.65
2023-04-09T00:49:26.567Z,7.63
2023-04-09T00:52:31.083Z,7.62
2023-04-09T00:55:34.406Z,7.61
2023-04-09T00:58:37.425Z,7.59
2023-04-09T01:01:40.664Z,7.57
2023-04-09T01:04:44.666Z,7.55
2023-04-09T01:08:08.778Z,7.54
2023-04-09T01:11:21.998Z,7.52
2023-04-09T01:14:36.052Z,7.50
2023-04-09T01:18:03.684Z,7.48
2023-04-09T01:21:16.388Z,7.48
2023-04-09T01:24:37.113Z,7.48
2023-04-09T01:27:55.095Z,7.47
2023-04-09T01:31:03.056Z,7.49
2023-04-09T01:34:08.840Z,7.50
2023-04-09T01:37:13.300Z,7.49
2023-04-09T01:40:16.756Z,7.48
2023-04-09T01:43:20.583Z,7.48
2023-04-09T01:46:25.478Z,7.48
2023-04-09T01:49:29.008Z,7.49
2023-04-09T01:52:32.292Z,7.50
2023-04-09T01:55:35.484Z,7.48
2023-04-09T01:58:39.070Z,7.48
2023-04-09T02:02:09.194Z,7.48
2023-04-09T02:05:14.262Z,7.48
2023-04-09T02:08:20.656Z,7.48
2023-04-09T02:11:24.015Z,7.48
2023-04-09T02:14:28.489Z,7.48
2023-04-09T02:17:31.557Z,7.47
2023-04-09T02:20:34.755Z,7.47
2023-04-09T02:23:37.756Z,7.46
2023-04-09T02:26:41.152Z,7.46
2023-04-09T02:29:44.303Z,7.46
2023-04-09T02:32:48.517Z,7.48
2023-04-09T02:35:51.760Z,7.50
2023-04-09T02:38:55.623Z,7.49
2023-04-09T02:41:58.742Z,7.50
2023-04-09T02:45:02.584Z,7.48
2023-04-09T02:48:07.411Z,7.48
2023-04-09T02:51:11.475Z,7.48
2023-04-09T02:54:14.591Z,7.47
2023-04-09T02:57:17.804Z,7.45
2023-04-09T03:00:20.870Z,7.44
2023-04-09T03:03:23.986Z,7.45
2023-04-09T03:06:27.166Z,7.45
2023-04-09T03:09:30.891Z,7.45
2023-04-09T03:12:33.879Z,7.44
2023-04-09T03:15:36.845Z,7.42
2023-04-09T03:18:39.902Z,7.41
2023-04-09T03:21:42.999Z,7.40
2023-04-09T03:24:46.664Z,7.41
2023-04-09T03:27:50.057Z,7.40
2023-04-09T03:30:58.692Z,7.40
2023-04-09T03:34:02.543Z,7.40
2023-04-09T03:37:06.785Z,7.40
2023-04-09T03:40:10.678Z,7.39
2023-04-09T03:43:13.836Z,7.37
2023-04-09T03:46:20.982Z,7.35
2023-04-09T03:49:24.668Z,7.33
2023-04-09T03:52:28.597Z,7.31
2023-04-09T03:55:37.952Z,7.29
2023-04-09T03:58:43.281Z,7.27
2023-04-09T04:01:48.243Z,7.26
2023-04-09T04:04:52.770Z,7.23
2023-04-09T04:07:56.712Z,7.21
2023-04-09T04:11:05.032Z,7.19
2023-04-09T04:14:08.334Z,7.17
2023-04-09T04:17:11.887Z,7.16
2023-04-09T04:20:15.396Z,7.14
2023-04-09T04:23:29.139Z,7.12
2023-04-09T04:26:37.772Z,7.07
2023-04-09T04:29:40.976Z,7.05
2023-04-09T04:32:57.309Z,7.03
2023-04-09T04:36:06.538Z,7.02
2023-04-09T04:39:22.565Z,7.00
2023-04-09T04:42:30.334Z,6.99
2023-04-09T04:45:34.526Z,6.99
2023-04-09T04:48:43.463Z,6.98
2023-04-09T04:51:46.651Z,6.99
2023-04-09T04:54:51.079Z,7.01
2023-04-09T04:57:57.401Z,7.02
2023-04-09T05:01:02.627Z,7.04
2023-04-09T05:04:06.196Z,7.04
2023-04-09T05:07:11.109Z,7.07
2023-04-09T05:10:18.468Z,7.08
2023-04-09T05:13:22.828Z,7.11
2023-04-09T05:16:27.193Z,7.15
2023-04-09T05:19:37.048Z,7.18
2023-04-09T05:22:40.203Z,7.23
2023-04-09T05:25:43.762Z,7.27
2023-04-09T05:28:53.522Z,7.32
2023-04-09T05:31:58.169Z,7.38
2023-04-09T05:35:05.816Z,7.44
2023-04-09T05:38:10.781Z,7.51
2023-04-09T05:41:15.082Z,7.55
2023-04-09T05:44:27.752Z,7.61
2023-04-09T05:47:36.615Z,7.64
2023-04-09T05:50:55.058Z,7.67
2023-04-09T05:53:59.759Z,7.68
2023-04-09T05:57:06.786Z,7.70
2023-04-09T06:00:13.484Z,7.71
2023-04-09T06:03:23.925Z,7.73
2023-04-09T06:06:27.176Z,7.75
2023-04-09T06:09:30.312Z,7.76
2023-04-09T06:12:35.398Z,7.78
2023-04-09T06:15:39.632Z,7.81
2023-04-09T06:18:42.708Z,7.82
2023-04-09T06:21:45.791Z,7.83
2023-04-09T06:24:48.851Z,7.85
2023-04-09T06:27:52.210Z,7.87
2023-04-09T06:30:55.485Z,7.90
2023-04-09T06:33:58.554Z,7.92
2023-04-09T06:37:01.694Z,7.94
2023-04-09T06:40:05.008Z,7.94
2023-04-09T06:43:08.288Z,7.96
2023-04-09T06:46:21.302Z,7.98
2023-04-09T06:49:24.420Z,7.99
2023-04-09T06:52:27.561Z,8.01
2023-04-09T06:55:30.851Z,8.03
2023-04-09T06:58:34.024Z,8.05
2023-04-09T07:01:37.909Z,8.06
2023-04-09T07:04:41.568Z,8.08
2023-04-09T07:07:44.792Z,8.11
2023-04-09T07:10:47.793Z,8.14
2023-04-09T07:13:51.391Z,8.17
2023-04-09T07:16:54.600Z,8.20
2023-04-09T07:19:57.697Z,8.25
2023-04-09T07:23:01.072Z,8.28
2023-04-09T07:26:05.390Z,8.32
2023-04-09T07:29:08.368Z,8.36
2023-04-09T07:32:11.611Z,8.39
2023-04-09T07:35:14.765Z,8.44
2023-04-09T07:38:17.752Z,8.48
2023-04-09T07:41:20.970Z,8.53
2023-04-09T07:44:24.630Z,8.58
2023-04-09T07:47:28.592Z,8.63
2023-04-09T07:50:31.654Z,8.67
2023-04-09T07:53:34.961Z,8.72
2023-04-09T07:56:38.110Z,8.78
2023-04-09T07:59:41.169Z,8.82
2023-04-09T08:02:44.566Z,8.86
2023-04-09T08:05:47.886Z,8.90
2023-04-09T08:08:51.159Z,8.93
2023-04-09T08:11:54.377Z,8.96
2023-04-09T08:14:57.356Z,8.98
2023-04-09T08:18:02.308Z,9.00
2023-04-09T08:21:06.248Z,9.03
2023-04-09T08:24:12.601Z,9.05
2023-04-09T08:27:16.118Z,9.09
2023-04-09T08:30:19.213Z,9.09
2023-04-09T08:33:22.340Z,9.11
2023-04-09T08:36:26.411Z,9.12
2023-04-09T08:39:29.650Z,9.12
2023-04-09T08:42:35.708Z,9.14
2023-04-09T08:45:41.507Z,9.17
2023-04-09T08:48:48.830Z,9.23
2023-04-09T08:51:51.913Z,9.29
2023-04-09T08:54:54.988Z,9.38
2023-04-09T08:57:58.361Z,9.48
2023-04-09T09:01:01.905Z,9.55
2023-04-09T09:04:10.001Z,9.63
2023-04-09T09:07:13.500Z,9.69
2023-04-09T09:10:17.412Z,9.72
2023-04-09T09:13:24.360Z,9.75
2023-04-09T09:16:27.827Z,9.79
2023-04-09T09:19:36.476Z,9.82
2023-04-09T09:22:56.017Z,9.87
2023-04-09T09:25:59.531Z,9.91
2023-04-09T09:29:04.158Z,9.96
2023-04-09T09:32:14.249Z,10.02
2023-04-09T09:35:17.304Z,10.07
2023-04-09T09:38:21.008Z,10.11
2023-04-09T09:41:24.962Z,10.17
2023-04-09T09:44:32.889Z,10.25
2023-04-09T09:47:37.559Z,10.35
2023-04-09T09:50:44.453Z,10.44
2023-04-09T09:53:52.361Z,10.51
2023-04-09T09:56:59.921Z,10.59
2023-04-09T10:00:04.576Z,10.62
2023-04-09T10:03:20.046Z,10.60
2023-04-09T10:06:24.166Z,10.60
2023-04-09T10:09:28.211Z,10.60
2023-04-09T10:12:32.862Z,10.64
2023-04-09T10:15:36.490Z,10.72
2023-04-09T10:18:40.799Z,10.78
2023-04-09T10:21:54.806Z,10.79
2023-04-09T10:24:59.951Z,10.77
2023-04-09T10:28:14.778Z,10.76
2023-04-09T10:31:20.780Z,10.73
2023-04-09T10:34:27.472Z,10.69
2023-04-09T10:37:31.860Z,10.65
2023-04-09T10:41:16.381Z,10.63
2023-04-09T10:44:24.606Z,10.59
2023-04-09T10:47:36.620Z,10.56
2023-04-09T10:50:43.063Z,10.52
2023-04-09T10:53:46.354Z,10.49
2023-04-09T10:57:07.594Z,10.45
2023-04-09T11:00:11.464Z,10.43
2023-04-09T11:03:30.808Z,10.40
2023-04-09T11:06:37.359Z,10.38
2023-04-09T11:09:42.444Z,10.35
2023-04-09T11:12:49.482Z,10.33
2023-04-09T11:15:52.861Z,10.32
2023-04-09T11:18:57.391Z,10.29
2023-04-09T11:22:00.436Z,10.28
2023-04-09T11:25:03.695Z,10.27
2023-04-09T11:28:08.182Z,10.25
2023-04-09T11:31:11.309Z,10.24
2023-04-09T11:34:14.452Z,10.23
2023-04-09T11:37:18.508Z,10.22
2023-04-09T11:40:23.622Z,10.22
2023-04-09T11:43:26.596Z,10.23
2023-04-09T11:46:32.732Z,10.24
2023-04-09T11:49:36.089Z,10.25
2023-04-09T11:52:40.270Z,10.26
2023-04-09T11:55:43.455Z,10.29
2023-04-09T11:58:47.904Z,10.29
2023-04-09T12:01:52.049Z,10.31
2023-04-09T12:04:55.602Z,10.34
2023-04-09T12:08:08.478Z,10.38
2023-04-09T12:11:13.079Z,10.41
2023-04-09T12:14:17.683Z,10.46
2023-04-09T12:17:21.268Z,10.49
2023-04-09T12:20:35.929Z,10.54
2023-04-09T12:23:38.991Z,10.61
2023-04-09T12:26:42.056Z,10.67
2023-04-09T12:29:45.078Z,10.74
2023-04-09T12:32:48.329Z,10.81
2023-04-09T12:35:51.724Z,10.86
2023-04-09T12:38:54.903Z,10.91
2023-04-09T12:41:57.953Z,10.95
2023-04-09T12:45:01.333Z,10.96
2023-04-09T12:48:04.487Z,10.96
2023-04-09T12:51:07.671Z,10.97
2023-04-09T12:54:11.083Z,10.97
2023-04-09T12:57:14.051Z,10.99
2023-04-09T13:00:17.143Z,11.00
2023-04-09T13:03:21.351Z,11.04
2023-04-09T13:06:24.479Z,11.07
2023-04-09T13:09:27.830Z,11.11
2023-04-09T13:12:31.425Z,11.13
2023-04-09T13:15:34.502Z,11.16
2023-04-09T13:18:37.515Z,11.18
2023-04-09T13:21:40.599Z,11.20
2023-04-09T13:24:43.655Z,11.20
2023-04-09T13:27:46.828Z,11.22
2023-04-09T13:30:49.944Z,11.22
2023-04-09T13:33:52.948Z,11.21
2023-04-09T13:36:56.360Z,11.22
2023-04-09T13:39:59.784Z,11.40
2023-04-09T13:43:02.894Z,11.62
2023-04-09T13:46:06.275Z,11.81
2023-04-09T13:49:09.254Z,12.06
2023-04-09T13:52:14.201Z,12.34
2023-04-09T13:55:17.303Z,12.50
2023-04-09T13:58:22.528Z,12.54
2023-04-09T14:01:27.522Z,12.51
2023-04-09T14:04:30.663Z,12.45
2023-04-09T14:07:33.792Z,12.37
2023-04-09T14:10:36.813Z,12.34
2023-04-09T14:13:39.862Z,12.41
2023-04-09T14:16:43.170Z,12.38
2023-04-09T14:19:46.215Z,12.37
2023-04-09T14:22:49.548Z,12.41
2023-04-09T14:25:53.468Z,12.43
2023-04-09T14:28:56.471Z,12.42
2023-04-09T14:32:01.030Z,12.37
2023-04-09T14:35:04.699Z,12.29
2023-04-09T14:38:10.032Z,12.23
2023-04-09T14:41:13.147Z,12.21
2023-04-09T14:44:16.256Z,12.21
2023-04-09T14:47:19.369Z,12.18
2023-04-09T14:50:22.415Z,12.14
2023-04-09T14:53:25.476Z,12.07
2023-04-09T14:56:28.436Z,12.01
2023-04-09T14:59:31.415Z,11.93
2023-04-09T15:02:35.433Z,11.85
2023-04-09T15:05:39.288Z,11.78
2023-04-09T15:08:42.248Z,11.70
2023-04-09T15:11:45.286Z,11.64
2023-04-09T15:14:48.308Z,11.58
2023-04-09T15:17:51.459Z,11.54
2023-04-09T15:20:54.485Z,11.51
2023-04-09T15:23:59.087Z,11.46
2023-04-09T15:27:02.120Z,11.41
2023-04-09T15:30:05.952Z,11.33
2023-04-09T15:33:08.972Z,11.23
2023-04-09T15:36:12.111Z,11.15
2023-04-09T15:39:15.232Z,11.09
2023-04-09T15:42:22.448Z,11.00
2023-04-09T15:45:26.259Z,10.94
2023-04-09T15:48:29.270Z,10.88
2023-04-09T15:51:32.422Z,10.84
2023-04-09T15:54:35.367Z,10.80
2023-04-09T15:57:38.751Z,10.75
2023-04-09T16:00:42.070Z,10.71
2023-04-09T16:03:50.582Z,10.68
2023-04-09T16:06:55.463Z,10.64
2023-04-09T16:10:00.707Z,10.62
2023-04-09T16:13:03.860Z,10.60
2023-04-09T16:16:07.319Z,10.59
2023-04-09T16:19:10.305Z,10.56
2023-04-09T16:22:13.392Z,10.55
2023-04-09T16:25:16.456Z,10.52
2023-04-09T16:28:21.962Z,10.49
2023-04-09T16:31:27.483Z,10.47
2023-04-09T16:34:32.150Z,10.45
2023-04-09T16:37:35.338Z,10.41
2023-04-09T16:40:38.299Z,10.37
2023-04-09T16:43:41.513Z,10.33
2023-04-09T16:46:47.662Z,10.29
2023-04-09T16:49:51.255Z,10.26
2023-04-09T16:52:56.763Z,10.23
2023-04-09T16:55:59.816Z,10.19
2023-04-09T16:59:05.158Z,10.16
2023-04-09T17:02:08.973Z,10.12
2023-04-09T17:05:12.330Z,10.09
2023-04-09T17:08:17.226Z,10.08
2023-04-09T17:11:21.437Z,10.07
2023-04-09T17:14:24.509Z,10.07
2023-04-09T17:17:29.162Z,10.04
2023-04-09T17:20:32.313Z,10.03
2023-04-09T17:23:36.281Z,10.02
2023-04-09T17:26:43.732Z,10.03
2023-04-09T17:29:46.886Z,10.02
2023-04-09T17:32:51.163Z,10.00
2023-04-09T17:35:54.399Z,9.99
2023-04-09T17:38:57.964Z,9.98
2023-04-09T17:42:03.391Z,9.97
2023-04-09T17:45:07.488Z,9.96
2023-04-09T17:48:10.880Z,9.94
2023-04-09T17:51:16.438Z,9.93
2023-04-09T17:54:19.495Z,9.92
2023-04-09T17:57:22.467Z,9.90
2023-04-09T18:00:25.808Z,9.88
2023-04-09T18:03:28.903Z,9.88
2023-04-09T18:06:32.171Z,9.86
2023-04-09T18:09:35.170Z,9.85
2023-04-09T18:12:38.216Z,9.83
2023-04-09T18:15:41.531Z,9.81
2023-04-09T18:18:44.557Z,9.78
2023-04-09T18:21:47.521Z,9.76
2023-04-09T18:24:52.022Z,9.73
2023-04-09T18:27:54.972Z,9.70
2023-04-09T18:30:58.880Z,9.68
2023-04-09T18:34:02.183Z,9.64
2023-04-09T18:37:05.332Z,9.63
2023-04-09T18:40:15.946Z,9.60
2023-04-09T18:43:18.915Z,9.58
2023-04-09T18:46:22.918Z,9.57
2023-04-09T18:49:27.024Z,9.56
2023-04-09T18:52:29.985Z,9.56
2023-04-09T18:55:35.882Z,9.57
2023-04-09T18:58:38.949Z,9.57
2023-04-09T19:01:42.383Z,9.55
2023-04-09T19:04:45.821Z,9.53
2023-04-09T19:07:48.914Z,9.50
2023-04-09T19:10:53.602Z,9.47
2023-04-09T19:13:56.724Z,9.44
2023-04-09T19:16:59.849Z,9.42
2023-04-09T19:20:03.017Z,9.39
2023-04-09T19:23:06.709Z,9.37
2023-04-09T19:26:09.755Z,9.35
2023-04-09T19:29:12.764Z,9.34
2023-04-09T19:32:16.250Z,9.30
2023-04-09T19:35:19.276Z,9.29
2023-04-09T19:38:22.416Z,9.27
2023-04-09T19:41:25.389Z,9.27
2023-04-09T19:44:28.415Z,9.26
2023-04-09T19:47:31.765Z,9.25
2023-04-09T19:50:39.017Z,9.25
2023-04-09T19:53:43.539Z,9.25
2023-04-09T19:56:47.548Z,9.24
2023-04-09T19:59:52.245Z,9.24
2023-04-09T20:02:55.835Z,9.24
2023-04-09T20:05:59.165Z,9.25
2023-04-09T20:09:02.216Z,9.24
2023-04-09T20:12:07.035Z,9.24
2023-04-09T20:15:10.495Z,9.24
2023-04-09T20:18:13.502Z,9.25
2023-04-09T20:21:16.527Z,9.25
2023-04-09T20:24:19.573Z,9.26
2023-04-09T20:27:22.669Z,9.25
2023-04-09T20:30:25.936Z,9.26
2023-04-09T20:33:28.941Z,9.26
2023-04-09T20:36:32.421Z,9.27
2023-04-09T20:39:35.439Z,9.26
2023-04-09T20:42:40.470Z,9.26
2023-04-09T20:45:43.494Z,9.25
2023-04-09T20:48:46.554Z,9.25
2023-04-09T20:51:50.048Z,9.24
2023-04-09T20:54:53.408Z,9.24
2023-04-09T20:57:57.040Z,9.23
2023-04-09T21:01:07.795Z,9.23
2023-04-09T21:04:11.364Z,9.23
2023-04-09T21:07:14.697Z,9.23
2023-04-09T21:10:17.916Z,9.21
2023-04-09T21:13:21.054Z,9.21
2023-04-09T21:16:26.073Z,9.19
2023-04-09T21:19:29.158Z,9.18
2023-04-09T21:22:32.114Z,9.17
2023-04-09T21:25:35.162Z,9.17
2023-04-09T21:28:38.214Z,9.16
2023-04-09T21:31:41.831Z,9.16
2023-04-09T21:34:44.804Z,9.16
2023-04-09T21:37:48.223Z,9.14
2023-04-09T21:40:51.309Z,9.14
2023-04-09T21:43:54.385Z,9.13
2023-04-09T21:46:57.476Z,9.13
2023-04-09T21:50:00.628Z,9.12
2023-04-09T21:53:03.636Z,9.11
2023-04-09T21:56:07.025Z,9.11
2023-04-09T21:59:09.940Z,9.11
2023-04-09T22:02:13.100Z,9.11
2023-04-09T22:05:16.349Z,9.11
2023-04-09T22:08:19.342Z,9.11
2023-04-09T22:11:28.149Z,9.10
2023-04-09T22:14:33.840Z,9.10
2023-04-09T22:17:36.845Z,9.10
2023-04-09T22:20:39.941Z,9.09
2023-04-09T22:23:43.752Z,9.09
2023-04-09T22:26:47.044Z,9.07
2023-04-09T22:29:50.311Z,9.08
2023-04-09T22:32:53.338Z,9.07
2023-04-09T22:35:56.661Z,9.05
2023-04-09T22:38:59.664Z,9.05
2023-04-09T22:42:03.080Z,9.03
2023-04-09T22:45:06.656Z,9.03
2023-04-09T22:48:09.738Z,9.02
2023-04-09T22:51:14.147Z,9.00
2023-04-09T22:54:17.265Z,8.99
2023-04-09T22:57:20.460Z,8.99
2023-04-09T23:00:23.555Z,8.98
2023-04-09T23:03:26.719Z,8.97
2023-04-09T23:06:30.999Z,8.97
2023-04-09T23:09:34.077Z,8.96
2023-04-09T23:12:37.160Z,8.95
2023-04-09T23:15:41.329Z,8.95
2023-04-09T23:18:44.457Z,8.94
2023-04-09T23:21:47.400Z,8.93
2023-04-09T23:24:50.613Z,8.93
2023-04-09T23:27:53.617Z,8.92
2023-04-09T23:30:56.914Z,8.92
2023-04-09T23:33:59.876Z,8.92
2023-04-09T23:37:02.898Z,8.92
2023-04-09T23:40:07.213Z,8.93
2023-04-09T23:43:10.242Z,8.92
2023-04-09T23:46:13.211Z,8.93
2023-04-09T23:49:16.268Z,8.93
2023-04-09T23:52:19.231Z,8.93
2023-04-09T23:55:22.303Z,8.94
2023-04-09T23:58:25.479Z,8.94
